createdAt,value
2023-03-29T00:01:35.491Z,18.63
2023-03-29T00:04:06.273Z,18.63
2023-03-29T00:06:33.722Z,18.64
2023-03-29T00:09:00.308Z,18.66
2023-03-29T00:11:27.432Z,18.70
2023-03-29T00:13:54.078Z,18.73
2023-03-29T00:16:20.787Z,18.73
2023-03-29T00:18:47.279Z,18.74
2023-03-29T00:21:13.710Z,18.72
2023-03-29T00:23:40.113Z,18.72
2023-03-29T00:26:08.235Z,18.72
2023-03-29T00:28:35.188Z,18.70
2023-03-29T00:31:06.267Z,18.69
2023-03-29T00:33:33.003Z,18.69
2023-03-29T00:35:59.558Z,18.67
2023-03-29T00:38:25.944Z,18.65
2023-03-29T00:40:52.353Z,18.62
2023-03-29T00:43:18.811Z,18.60
2023-03-29T00:45:45.213Z,18.57
2023-03-29T00:48:20.848Z,18.56
2023-03-29T00:50:50.038Z,18.54
2023-03-29T00:53:19.363Z,18.50
2023-03-29T00:55:46.038Z,18.47
2023-03-29T00:58:14.971Z,18.46
2023-03-29T01:00:45.927Z,18.44
2023-03-29T01:03:14.456Z,18.42
2023-03-29T01:05:44.105Z,18.39
2023-03-29T01:08:18.265Z,18.37
2023-03-29T01:10:49.964Z,18.35
2023-03-29T01:13:19.993Z,18.34
2023-03-29T01:15:46.923Z,18.33
2023-03-29T01:18:14.023Z,18.32
2023-03-29T01:21:06.572Z,18.31
2023-03-29T01:23:38.215Z,18.30
2023-03-29T01:26:07.362Z,18.28
2023-03-29T01:28:36.248Z,18.30
2023-03-29T01:31:07.416Z,18.28
2023-03-29T01:33:37.424Z,18.27
2023-03-29T01:36:14.187Z,18.30
2023-03-29T01:38:43.934Z,18.28
2023-03-29T01:41:10.801Z,18.29
2023-03-29T01:43:44.154Z,18.29
2023-03-29T01:46:13.483Z,18.27
2023-03-29T01:48:42.720Z,18.27
2023-03-29T01:51:11.458Z,18.27
2023-03-29T01:53:37.860Z,18.26
2023-03-29T01:56:11.797Z,18.27
2023-03-29T01:58:41.658Z,18.25
2023-03-29T02:01:10.458Z,18.26
2023-03-29T02:03:42.396Z,18.24
2023-03-29T02:06:11.225Z,18.24
2023-03-29T02:08:39.156Z,18.24
2023-03-29T02:11:05.710Z,18.23
2023-03-29T02:13:32.269Z,18.22
2023-03-29T02:16:02.246Z,18.21
2023-03-29T02:18:30.039Z,18.20
2023-03-29T02:20:57.394Z,18.20
2023-03-29T02:23:29.332Z,18.17
2023-03-29T02:25:57.053Z,18.19
2023-03-29T02:28:24.742Z,18.17
2023-03-29T02:31:09.864Z,18.19
2023-03-29T02:33:57.285Z,18.20
2023-03-29T02:36:27.486Z,18.20
2023-03-29T02:38:54.206Z,18.22
2023-03-29T02:41:22.015Z,18.22
2023-03-29T02:43:49.054Z,18.22
2023-03-29T02:46:16.414Z,18.24
2023-03-29T02:48:46.341Z,18.23
2023-03-29T02:51:20.022Z,18.24
2023-03-29T02:53:57.209Z,18.22
2023-03-29T02:56:23.973Z,18.21
2023-03-29T02:58:50.396Z,18.22
2023-03-29T03:01:18.048Z,18.22
2023-03-29T03:03:45.310Z,18.21
2023-03-29T03:06:12.344Z,18.21
2023-03-29T03:08:38.905Z,18.21
2023-03-29T03:11:05.527Z,18.19
2023-03-29T03:13:31.987Z,18.20
2023-03-29T03:15:58.457Z,18.18
2023-03-29T03:18:24.981Z,18.19
2023-03-29T03:20:54.813Z,18.17
2023-03-29T03:23:21.242Z,18.17
2023-03-29T03:25:49.134Z,18.17
2023-03-29T03:28:15.498Z,18.16
2023-03-29T03:30:42.176Z,18.16
2023-03-29T03:33:09.210Z,18.17
2023-03-29T03:35:35.682Z,18.17
2023-03-29T03:38:02.101Z,18.17
2023-03-29T03:40:28.539Z,18.17
2023-03-29T03:42:54.909Z,18.15
2023-03-29T03:45:21.699Z,18.16
2023-03-29T03:47:48.178Z,18.14
2023-03-29T03:50:14.652Z,18.13
2023-03-29T03:52:41.055Z,18.13
2023-03-29T03:55:08.303Z,18.11
2023-03-29T03:57:37.492Z,18.12
2023-03-29T04:00:08.862Z,18.11
2023-03-29T04:02:35.960Z,18.10
2023-03-29T04:05:03.465Z,18.11
2023-03-29T04:07:30.233Z,18.09
2023-03-29T04:09:56.661Z,18.10
2023-03-29T04:12:23.197Z,18.09
2023-03-29T04:14:49.894Z,18.08
2023-03-29T04:17:16.366Z,18.09
2023-03-29T04:19:42.815Z,18.08
2023-03-29T04:22:09.485Z,18.06
2023-03-29T04:24:36.115Z,18.06
2023-03-29T04:27:02.575Z,18.06
2023-03-29T04:29:28.984Z,18.04
2023-03-29T04:31:56.498Z,18.06
2023-03-29T04:34:22.967Z,18.06
2023-03-29T04:36:52.118Z,18.04
2023-03-29T04:39:18.553Z,18.05
2023-03-29T04:41:45.086Z,18.06
2023-03-29T04:44:12.295Z,18.06
2023-03-29T04:46:40.319Z,18.06
2023-03-29T04:49:07.008Z,18.08
2023-03-29T04:51:33.370Z,18.09
2023-03-29T04:53:59.824Z,18.09
2023-03-29T04:56:27.130Z,18.09
2023-03-29T04:58:53.610Z,18.10
2023-03-29T05:01:20.170Z,18.12
2023-03-29T05:03:46.638Z,18.14
2023-03-29T05:06:13.565Z,18.16
2023-03-29T05:08:40.316Z,18.21
2023-03-29T05:11:07.438Z,18.22
2023-03-29T05:13:34.278Z,18.24
2023-03-29T05:16:01.001Z,18.25
2023-03-29T05:18:27.882Z,18.28
2023-03-29T05:20:54.344Z,18.30
2023-03-29T05:23:20.783Z,18.33
2023-03-29T05:25:48.822Z,18.33
2023-03-29T05:28:15.379Z,18.35
2023-03-29T05:30:42.500Z,18.35
2023-03-29T05:33:09.122Z,18.36
2023-03-29T05:35:36.072Z,18.36
2023-03-29T05:38:04.486Z,18.38
2023-03-29T05:40:31.544Z,18.37
2023-03-29T05:42:59.498Z,18.38
2023-03-29T05:45:28.585Z,18.41
2023-03-29T05:47:55.273Z,18.41
2023-03-29T05:50:21.750Z,18.41
2023-03-29T05:52:48.146Z,18.43
2023-03-29T05:55:14.883Z,18.41
2023-03-29T05:57:41.479Z,18.45
2023-03-29T06:00:17.786Z,18.46
2023-03-29T06:02:44.313Z,18.48
2023-03-29T06:05:10.870Z,18.51
2023-03-29T06:07:38.361Z,18.53
2023-03-29T06:10:05.669Z,18.56
2023-03-29T06:12:32.581Z,18.59
2023-03-29T06:15:04.706Z,18.59
2023-03-29T06:17:31.602Z,18.60
2023-03-29T06:19:58.052Z,18.63
2023-03-29T06:22:24.473Z,18.66
2023-03-29T06:24:51.171Z,18.67
2023-03-29T06:27:17.674Z,18.69
2023-03-29T06:29:44.028Z,18.72
2023-03-29T06:32:11.102Z,18.74
2023-03-29T06:34:38.560Z,18.76
2023-03-29T06:37:05.950Z,18.79
2023-03-29T06:39:32.971Z,18.80
2023-03-29T06:42:03.479Z,18.81
2023-03-29T06:44:33.893Z,18.81
2023-03-29T06:47:00.382Z,18.90
2023-03-29T06:49:27.041Z,18.99
2023-03-29T06:51:53.920Z,19.04
2023-03-29T06:54:21.100Z,19.04
2023-03-29T06:56:47.550Z,19.07
2023-03-29T06:59:13.966Z,19.08
2023-03-29T07:01:40.435Z,19.15
2023-03-29T07:04:08.897Z,19.11
2023-03-29T07:06:38.253Z,19.01
2023-03-29T07:09:07.878Z,18.97
2023-03-29T07:11:35.813Z,18.98
2023-03-29T07:14:03.234Z,18.98
2023-03-29T07:16:29.694Z,19.04
2023-03-29T07:18:56.658Z,19.12
2023-03-29T07:21:23.082Z,19.13
2023-03-29T07:23:49.537Z,19.22
2023-03-29T07:26:28.742Z,19.29
2023-03-29T07:28:56.302Z,19.33
2023-03-29T07:31:22.716Z,19.37
2023-03-29T07:33:52.482Z,19.40
2023-03-29T07:36:19.676Z,19.46
2023-03-29T07:38:46.107Z,19.48
2023-03-29T07:41:12.489Z,19.50
2023-03-29T07:43:39.131Z,19.54
2023-03-29T07:46:06.163Z,19.59
2023-03-29T07:48:33.842Z,19.59
2023-03-29T07:51:00.871Z,19.64
2023-03-29T07:53:29.589Z,19.67
2023-03-29T07:55:56.223Z,19.69
2023-03-29T07:58:22.708Z,19.73
2023-03-29T08:00:49.275Z,19.75
2023-03-29T08:03:16.226Z,19.78
2023-03-29T08:05:43.285Z,19.81
2023-03-29T08:08:10.110Z,19.81
2023-03-29T08:10:37.715Z,19.79
2023-03-29T08:13:07.284Z,19.80
2023-03-29T08:15:34.230Z,19.78
2023-03-29T08:18:00.769Z,19.80
2023-03-29T08:20:27.488Z,19.84
2023-03-29T08:22:54.418Z,19.86
2023-03-29T08:25:21.758Z,19.88
2023-03-29T08:27:48.406Z,19.89
2023-03-29T08:30:15.747Z,19.92
2023-03-29T08:32:42.323Z,19.93
2023-03-29T08:35:09.814Z,19.94
2023-03-29T08:37:37.255Z,20.00
2023-03-29T08:40:04.143Z,20.02
2023-03-29T08:42:41.787Z,20.01
2023-03-29T08:45:17.391Z,19.97
2023-03-29T08:47:56.178Z,19.94
2023-03-29T08:50:27.305Z,19.92
2023-03-29T08:53:00.563Z,19.92
2023-03-29T08:55:31.770Z,19.90
2023-03-29T08:57:59.845Z,19.90
2023-03-29T09:00:38.835Z,19.90
2023-03-29T09:03:18.150Z,19.89
2023-03-29T09:05:47.446Z,19.85
2023-03-29T09:08:17.020Z,19.88
2023-03-29T09:10:48.014Z,19.88
2023-03-29T09:13:19.921Z,19.89
2023-03-29T09:15:46.670Z,19.90
2023-03-29T09:18:31.670Z,19.93
2023-03-29T09:21:06.850Z,19.95
2023-03-29T09:23:44.463Z,19.97
2023-03-29T09:26:18.182Z,19.99
2023-03-29T09:28:55.731Z,20.03
2023-03-29T09:31:26.205Z,20.03
2023-03-29T09:33:57.309Z,20.05
2023-03-29T09:36:25.013Z,20.09
2023-03-29T09:38:54.542Z,20.11
2023-03-29T09:41:31.488Z,20.12
2023-03-29T09:44:00.140Z,20.15
2023-03-29T09:46:30.318Z,20.15
2023-03-29T09:48:57.272Z,20.13
2023-03-29T09:51:28.350Z,20.10
2023-03-29T09:53:56.263Z,20.11
2023-03-29T09:56:23.035Z,20.10
2023-03-29T09:58:49.434Z,20.10
2023-03-29T10:01:17.405Z,20.09
2023-03-29T10:03:48.587Z,20.08
2023-03-29T10:06:16.471Z,20.07
2023-03-29T10:08:55.028Z,20.06
2023-03-29T10:11:23.461Z,20.06
2023-03-29T10:13:54.833Z,20.04
2023-03-29T10:16:25.846Z,20.04
2023-03-29T10:18:54.608Z,20.03
2023-03-29T10:21:22.016Z,20.03
2023-03-29T10:23:49.031Z,20.04
2023-03-29T10:26:28.461Z,20.03
2023-03-29T10:28:57.178Z,20.04
2023-03-29T10:31:24.845Z,20.05
2023-03-29T10:33:52.698Z,20.05
2023-03-29T10:36:19.593Z,20.06
2023-03-29T10:38:46.375Z,20.07
2023-03-29T10:41:13.703Z,20.08
2023-03-29T10:43:45.436Z,20.10
2023-03-29T10:46:30.500Z,20.11
2023-03-29T10:48:58.665Z,20.12
2023-03-29T10:51:27.731Z,20.13
2023-03-29T10:53:54.150Z,20.14
2023-03-29T10:56:38.926Z,20.15
2023-03-29T10:59:14.549Z,20.15
2023-03-29T11:01:56.508Z,20.17
2023-03-29T11:04:35.534Z,20.18
2023-03-29T11:07:07.904Z,20.18
2023-03-29T11:09:37.430Z,20.19
2023-03-29T11:12:16.461Z,20.19
2023-03-29T11:15:01.304Z,20.19
2023-03-29T11:17:27.760Z,20.20
2023-03-29T11:19:54.178Z,20.21
2023-03-29T11:22:29.937Z,20.21
2023-03-29T11:25:10.060Z,20.21
2023-03-29T11:27:46.117Z,20.20
2023-03-29T11:30:12.526Z,20.19
2023-03-29T11:32:54.531Z,20.19
2023-03-29T11:35:39.780Z,20.18
2023-03-29T11:38:24.991Z,20.17
2023-03-29T11:40:54.187Z,20.13
2023-03-29T11:43:27.847Z,20.13
2023-03-29T11:46:00.953Z,20.12
2023-03-29T11:48:34.504Z,20.13
2023-03-29T11:51:18.766Z,20.12
2023-03-29T11:54:07.472Z,20.11
2023-03-29T11:56:40.822Z,20.11
2023-03-29T11:59:13.164Z,20.11
2023-03-29T12:01:42.727Z,20.11
2023-03-29T12:04:23.008Z,20.11
2023-03-29T12:06:49.501Z,20.11
2023-03-29T12:09:16.827Z,20.09
2023-03-29T12:11:50.930Z,20.09
2023-03-29T12:14:20.882Z,20.09
2023-03-29T12:16:51.899Z,20.09
2023-03-29T12:19:33.754Z,20.09
2023-03-29T12:22:01.027Z,20.09
2023-03-29T12:24:32.505Z,20.10
2023-03-29T12:27:16.409Z,20.09
2023-03-29T12:29:51.977Z,20.09
2023-03-29T12:32:21.492Z,20.10
2023-03-29T12:34:50.661Z,20.10
2023-03-29T12:37:24.683Z,20.10
2023-03-29T12:39:51.779Z,20.12
2023-03-29T12:42:20.298Z,20.12
2023-03-29T12:44:49.823Z,20.12
2023-03-29T12:47:21.587Z,20.14
2023-03-29T12:49:51.273Z,20.12
2023-03-29T12:52:43.941Z,20.11
2023-03-29T12:55:20.997Z,20.12
2023-03-29T12:58:02.604Z,20.10
2023-03-29T13:00:58.469Z,20.11
2023-03-29T13:03:29.431Z,20.11
2023-03-29T13:06:00.751Z,20.09
2023-03-29T13:08:32.764Z,20.09
2023-03-29T13:10:59.368Z,20.09
2023-03-29T13:13:31.183Z,20.09
2023-03-29T13:16:08.662Z,20.08
2023-03-29T13:18:41.047Z,20.10
2023-03-29T13:21:14.031Z,20.11
2023-03-29T13:23:46.560Z,20.09
2023-03-29T13:26:24.869Z,20.09
2023-03-29T13:29:07.245Z,20.09
2023-03-29T13:31:44.319Z,20.08
2023-03-29T13:34:26.646Z,20.08
2023-03-29T13:37:05.205Z,20.08
2023-03-29T13:39:34.459Z,20.07
2023-03-29T13:42:07.176Z,20.07
2023-03-29T13:44:44.408Z,20.09
2023-03-29T13:47:26.431Z,20.07
2023-03-29T13:49:54.114Z,20.07
2023-03-29T13:52:26.565Z,20.07
2023-03-29T13:54:57.418Z,20.08
2023-03-29T13:57:30.129Z,20.07
2023-03-29T13:59:57.117Z,20.10
2023-03-29T14:02:29.622Z,20.08
2023-03-29T14:04:56.278Z,20.09
2023-03-29T14:07:26.405Z,20.08
2023-03-29T14:09:53.456Z,20.07
2023-03-29T14:12:20.601Z,20.07
2023-03-29T14:14:58.280Z,20.06
2023-03-29T14:17:25.718Z,20.05
2023-03-29T14:19:57.650Z,20.04
2023-03-29T14:22:24.368Z,20.06
2023-03-29T14:24:54.855Z,20.04
2023-03-29T14:27:22.013Z,20.04
2023-03-29T14:29:50.101Z,20.03
2023-03-29T14:32:20.495Z,20.03
2023-03-29T14:34:50.884Z,20.03
2023-03-29T14:37:21.846Z,20.03
2023-03-29T14:39:49.319Z,20.02
2023-03-29T14:42:20.138Z,20.02
2023-03-29T14:44:47.470Z,20.02
2023-03-29T14:47:17.008Z,20.01
2023-03-29T14:49:44.279Z,20.01
2023-03-29T14:52:11.678Z,19.99
2023-03-29T14:54:39.505Z,20.01
2023-03-29T14:57:08.931Z,20.01
2023-03-29T14:59:37.070Z,20.02
2023-03-29T15:02:04.177Z,20.03
2023-03-29T15:04:34.479Z,20.03
2023-03-29T15:07:01.008Z,20.03
2023-03-29T15:09:29.969Z,20.03
2023-03-29T15:11:57.599Z,20.03
2023-03-29T15:14:25.149Z,20.04
2023-03-29T15:16:53.414Z,20.03
2023-03-29T15:19:21.353Z,20.03
2023-03-29T15:21:49.234Z,20.05
2023-03-29T15:24:22.121Z,20.06
2023-03-29T15:26:58.152Z,20.09
2023-03-29T15:29:33.210Z,20.09
2023-03-29T15:31:59.784Z,20.09
2023-03-29T15:34:27.729Z,20.10
2023-03-29T15:36:57.868Z,20.09
2023-03-29T15:39:24.654Z,20.08
2023-03-29T15:41:52.806Z,20.09
2023-03-29T15:44:48.433Z,20.08
2023-03-29T15:47:15.010Z,20.07
2023-03-29T15:49:41.919Z,20.06
2023-03-29T15:52:08.634Z,20.05
2023-03-29T15:54:37.068Z,20.04
2023-03-29T15:57:06.427Z,20.03
2023-03-29T15:59:32.998Z,20.03
2023-03-29T16:01:59.506Z,20.04
2023-03-29T16:04:26.150Z,20.04
2023-03-29T16:06:53.383Z,20.02
2023-03-29T16:09:20.705Z,20.02
2023-03-29T16:11:47.978Z,20.02
2023-03-29T16:14:25.361Z,20.01
2023-03-29T16:16:52.361Z,20.00
2023-03-29T16:19:19.561Z,20.00
2023-03-29T16:21:46.042Z,20.00
2023-03-29T16:24:16.430Z,19.98
2023-03-29T16:26:43.038Z,19.97
2023-03-29T16:29:09.467Z,19.98
2023-03-29T16:31:36.429Z,19.97
2023-03-29T16:34:03.528Z,19.98
2023-03-29T16:36:31.006Z,19.97
2023-03-29T16:38:58.971Z,19.96
2023-03-29T16:41:25.829Z,19.96
2023-03-29T16:43:52.636Z,19.95
2023-03-29T16:46:19.110Z,19.95
2023-03-29T16:48:45.549Z,19.94
2023-03-29T16:51:11.996Z,19.94
2023-03-29T16:53:38.729Z,19.95
2023-03-29T16:56:05.549Z,19.95
2023-03-29T16:58:32.206Z,19.94
2023-03-29T17:00:58.666Z,19.94
2023-03-29T17:03:25.650Z,19.94
2023-03-29T17:05:53.056Z,19.94
2023-03-29T17:08:20.289Z,19.94
2023-03-29T17:10:46.933Z,19.92
2023-03-29T17:13:13.334Z,19.93
2023-03-29T17:15:40.142Z,19.90
2023-03-29T17:18:07.160Z,19.91
2023-03-29T17:20:33.667Z,19.90
2023-03-29T17:23:00.129Z,19.89
2023-03-29T17:25:26.592Z,19.89
2023-03-29T17:27:54.094Z,19.89
2023-03-29T17:30:20.787Z,19.89
2023-03-29T17:32:47.298Z,19.86
2023-03-29T17:35:14.596Z,19.86
2023-03-29T17:37:41.943Z,19.84
2023-03-29T17:40:13.945Z,19.85
2023-03-29T17:42:45.750Z,19.85
2023-03-29T17:45:12.307Z,19.84
2023-03-29T17:47:39.065Z,19.84
2023-03-29T17:50:06.176Z,19.84
2023-03-29T17:52:32.609Z,19.83
2023-03-29T17:54:59.022Z,19.81
2023-03-29T17:57:25.572Z,19.81
2023-03-29T17:59:52.132Z,19.81
2023-03-29T18:02:21.097Z,19.81
2023-03-29T18:04:47.664Z,19.81
2023-03-29T18:07:14.207Z,19.80
2023-03-29T18:09:40.660Z,19.80
2023-03-29T18:12:07.556Z,19.79
2023-03-29T18:14:34.168Z,19.79
2023-03-29T18:17:00.924Z,19.80
2023-03-29T18:19:27.509Z,19.77
2023-03-29T18:21:54.287Z,19.78
2023-03-29T18:24:20.671Z,19.78
2023-03-29T18:26:47.172Z,19.79
2023-03-29T18:29:13.655Z,19.78
2023-03-29T18:31:40.339Z,19.77
2023-03-29T18:34:06.810Z,19.77
2023-03-29T18:36:33.258Z,19.76
2023-03-29T18:39:05.572Z,19.76
2023-03-29T18:41:32.976Z,19.76
2023-03-29T18:44:00.218Z,19.76
2023-03-29T18:46:30.365Z,19.76
2023-03-29T18:48:57.440Z,19.75
2023-03-29T18:51:25.750Z,19.76
2023-03-29T18:53:52.833Z,19.74
2023-03-29T18:56:19.318Z,19.74
2023-03-29T18:58:46.362Z,19.74
2023-03-29T19:01:13.988Z,19.73
2023-03-29T19:03:40.923Z,19.75
2023-03-29T19:06:07.992Z,19.75
2023-03-29T19:08:36.631Z,19.75
2023-03-29T19:11:04.373Z,19.73
2023-03-29T19:13:30.872Z,19.74
2023-03-29T19:15:57.411Z,19.73
2023-03-29T19:18:23.899Z,19.73
2023-03-29T19:20:51.254Z,19.73
2023-03-29T19:23:18.468Z,19.74
2023-03-29T19:25:55.218Z,19.74
2023-03-29T19:28:21.974Z,19.73
2023-03-29T19:30:48.598Z,19.74
2023-03-29T19:33:15.816Z,19.74
2023-03-29T19:35:42.591Z,19.73
2023-03-29T19:38:09.165Z,19.73
2023-03-29T19:40:36.498Z,19.74
2023-03-29T19:43:03.053Z,19.74
2023-03-29T19:45:29.918Z,19.74
2023-03-29T19:47:57.129Z,19.73
2023-03-29T19:50:24.311Z,19.72
2023-03-29T19:52:50.882Z,19.72
2023-03-29T19:55:18.610Z,19.71
2023-03-29T19:57:45.070Z,19.71
2023-03-29T20:00:11.662Z,19.71
2023-03-29T20:02:38.128Z,19.73
2023-03-29T20:05:04.791Z,19.72
2023-03-29T20:07:31.257Z,19.72
2023-03-29T20:09:57.650Z,19.71
2023-03-29T20:12:24.205Z,19.71
2023-03-29T20:14:50.639Z,19.72
2023-03-29T20:17:17.106Z,19.72
2023-03-29T20:19:44.060Z,19.73
2023-03-29T20:22:11.598Z,19.72
2023-03-29T20:24:38.065Z,19.72
2023-03-29T20:27:04.750Z,19.72
2023-03-29T20:29:32.868Z,19.72
2023-03-29T20:31:59.422Z,19.72
2023-03-29T20:34:25.984Z,19.70
2023-03-29T20:36:55.152Z,19.72
2023-03-29T20:39:25.648Z,19.70
2023-03-29T20:41:52.399Z,19.71
2023-03-29T20:44:18.876Z,19.71
2023-03-29T20:47:02.408Z,19.70
2023-03-29T20:49:29.742Z,19.70
2023-03-29T20:52:03.411Z,19.69
2023-03-29T20:54:29.838Z,19.69
2023-03-29T20:56:56.467Z,19.71
2023-03-29T20:59:22.937Z,19.72
2023-03-29T21:01:50.330Z,19.75
2023-03-29T21:04:16.941Z,19.75
2023-03-29T21:06:45.486Z,19.76
2023-03-29T21:09:12.603Z,19.75
2023-03-29T21:11:39.216Z,19.76
2023-03-29T21:14:05.712Z,19.77
2023-03-29T21:16:32.074Z,19.78
2023-03-29T21:18:58.545Z,19.78
2023-03-29T21:21:24.999Z,19.77
2023-03-29T21:23:51.444Z,19.77
2023-03-29T21:26:17.892Z,19.78
2023-03-29T21:28:44.318Z,19.77
2023-03-29T21:31:10.758Z,19.77
2023-03-29T21:33:37.260Z,19.77
2023-03-29T21:36:03.851Z,19.76
2023-03-29T21:38:30.634Z,19.77
2023-03-29T21:40:58.198Z,19.76
2023-03-29T21:43:24.629Z,19.76
2023-03-29T21:45:51.393Z,19.76
2023-03-29T21:48:18.140Z,19.74
2023-03-29T21:50:47.938Z,19.75
2023-03-29T21:53:14.358Z,19.76
2023-03-29T21:55:40.790Z,19.75
2023-03-29T21:58:07.181Z,19.76
2023-03-29T22:00:33.671Z,19.75
2023-03-29T22:03:00.286Z,19.74
2023-03-29T22:05:27.252Z,19.75
2023-03-29T22:07:53.694Z,19.74
2023-03-29T22:10:23.935Z,19.74
2023-03-29T22:12:51.049Z,19.75
2023-03-29T22:15:19.217Z,19.74
2023-03-29T22:17:45.824Z,19.73
2023-03-29T22:20:13.236Z,19.75
2023-03-29T22:22:43.423Z,19.74
2023-03-29T22:25:10.640Z,19.75
2023-03-29T22:27:37.419Z,19.75
2023-03-29T22:30:05.609Z,19.75
2023-03-29T22:32:32.473Z,19.76
2023-03-29T22:34:58.950Z,19.75
2023-03-29T22:37:25.570Z,19.75
2023-03-29T22:39:51.953Z,19.77
2023-03-29T22:42:18.399Z,19.76
2023-03-29T22:44:44.925Z,19.76
2023-03-29T22:47:11.331Z,19.77
2023-03-29T22:49:37.745Z,19.77
2023-03-29T22:52:04.149Z,19.77
2023-03-29T22:54:31.190Z,19.76
2023-03-29T22:56:58.136Z,19.77
2023-03-29T22:59:25.141Z,19.77
2023-03-29T23:01:51.933Z,19.76
2023-03-29T23:04:18.467Z,19.76
2023-03-29T23:06:44.959Z,19.79
2023-03-29T23:09:12.004Z,19.81
2023-03-29T23:11:39.415Z,19.80
2023-03-29T23:14:07.600Z,19.82
2023-03-29T23:16:34.191Z,19.83
2023-03-29T23:19:00.992Z,19.84
2023-03-29T23:21:28.003Z,19.85
2023-03-29T23:23:55.149Z,19.88
2023-03-29T23:26:21.628Z,19.89
2023-03-29T23:28:47.990Z,19.90
2023-03-29T23:31:18.440Z,19.89
2023-03-29T23:33:45.030Z,19.91
2023-03-29T23:36:15.459Z,19.90
2023-03-29T23:38:43.763Z,19.92
2023-03-29T23:41:12.668Z,19.90
2023-03-29T23:43:40.500Z,19.90
2023-03-29T23:46:08.563Z,19.89
2023-03-29T23:48:35.039Z,19.89
2023-03-29T23:51:02.253Z,19.89
2023-03-29T23:53:29.682Z,19.88
2023-03-29T23:56:01.276Z,19.89
2023-03-29T23:58:31.757Z,19.89
